Decoded Metar for KPNC (PONCA CITY in OK, USA) (IATA:PNC) | Meteo·Mobile Aviation Weather
aviador You're here:

KPNC Decoded Metar

PONCA CITY in OK, USA
Report Time2019-03-20 15:53:00
UTC Time2019-03-20 16:09:41
Flight Rules vfr VFR
Wind300° at 09 Gusting to 17 kt
W.Decomp.*RWY 35: 5.2 kt HW 7.4 kt LCW
W.Rank300° ranks 29
Current wind is above 300° avg. (7.2)
Visibility9999 m
Phenomena:N/A
Clouds:N/A
Expected CloudBase > 2,800 ft AGL from Temp-Dew spread
CeilingNone
Temp10°C (ISA -3)
Dew Point03°C (62% RH)
AAT5.3°C
QNH1025 hPa
Density Alt354 ft
Elevation1,010 ft
Report Wrong Elevation
Raw Report
KPNC 201553Z AUTO 30009G17KT 10SM CLR 10/03 A3028 RMK AO2 SLP254
T01000028=

Extra information for KPNC:More info

Metar Taf Metar & Taf Last 4 Metars F.Rules Stats Wind Profile Meteogram Temp Stats Airport Information Weather charts Add Link Nearby VenuesMetar ALERT Operation Metar Decoded Social comments

AIRNAV info for KPNC